Time;durP1;ratioP1;P1;durP2;ratioP2;P2;SDS_P1;SDS_P2;PMS_P1;PMS_P2;Temp;Humidity;BMP_temperature;BMP_pressure;BME280_temperature;BME280_humidity;BME280_pressure;Samples;Min_cycle;Max_cycle;Signal;HPM_P1;HPM_P2
2022/01/14 00:01:49;;;;;;;1.30;1.30;;;3.70;99.90;4.00;103655.00;;;;5031039;28;20203;-65
2022/01/14 00:04:17;;;;;;;0.70;0.70;;;4.00;99.90;4.10;103642.00;;;;5014949;28;20543;-65
2022/01/14 00:06:44;;;;;;;2.80;2.70;;;3.80;99.90;4.10;103613.00;;;;5014869;28;20172;-65
2022/01/14 00:09:11;;;;;;;0.70;0.70;;;3.90;99.90;3.40;103645.00;;;;5016204;28;20164;-66
2022/01/14 00:11:50;;;;;;;0.70;0.70;;;3.60;99.90;3.20;103638.00;;;;5031094;28;20318;-65
2022/01/14 00:16:44;;;;;;;0.70;0.70;;;3.40;99.90;3.00;103596.00;;;;5031177;28;20183;-65
2022/01/14 00:19:13;;;;;;;6.10;5.80;;;3.30;99.90;3.20;103635.00;;;;5014615;28;20172;-65
2022/01/14 00:21:43;;;;;;;2.03;1.20;;;3.30;99.90;3.40;103635.00;;;;5030994;28;20169;-65
2022/01/14 00:32:48;;;;;;;1.00;1.00;;;3.30;99.90;3.20;103625.00;;;;5015138;28;20223;-66
2022/01/14 00:35:15;;;;;;;0.60;0.60;;;3.20;99.90;3.10;103619.00;;;;5017792;28;20674;-65
2022/01/14 00:37:49;;;;;;;2.23;2.13;;;3.30;99.90;3.00;103575.00;;;;5033507;28;20634;-65
2022/01/14 00:40:17;;;;;;;1.03;1.03;;;3.20;99.90;2.80;103619.00;;;;5016739;28;20278;-65
2022/01/14 00:42:48;;;;;;;0.53;0.53;;;3.10;99.90;3.10;103576.00;;;;5033077;28;20191;-64
2022/01/14 00:45:17;;;;;;;1.27;1.27;;;3.10;99.90;3.20;103609.00;;;;5033441;28;20191;-65
2022/01/14 00:47:46;;;;;;;0.63;0.63;;;3.30;99.90;3.50;103611.00;;;;5016633;28;20560;-65
2022/01/14 00:50:20;;;;;;;1.43;0.93;;;3.40;99.90;3.20;103614.00;;;;5017364;28;20191;-65
2022/01/14 00:52:47;;;;;;;2.20;2.20;;;3.40;99.90;3.00;103614.00;;;;5033045;28;20666;-65
2022/01/14 00:55:18;;;;;;;1.10;1.10;;;3.40;99.90;3.20;103605.00;;;;5031948;28;20635;-64
2022/01/14 01:00:33;;;;;;;0.93;0.93;;;3.30;99.90;2.60;103598.00;;;;5027419;28;20179;-64
2022/01/14 01:03:06;;;;;;;2.50;2.40;;;3.10;99.90;2.50;103571.00;;;;5033053;28;20210;-64
2022/01/14 01:05:39;;;;;;;1.77;1.67;;;2.90;99.90;2.90;103573.00;;;;5032874;28;20638;-64
2022/01/14 01:08:12;;;;;;;2.40;2.30;;;3.00;99.90;3.20;103590.00;;;;5033825;28;20252;-65
2022/01/14 01:10:49;;;;;;;0.80;0.80;;;3.10;99.90;3.40;103591.00;;;;5032823;28;20195;-64
2022/01/14 01:13:25;;;;;;;1.63;1.63;;;3.30;99.90;3.30;103579.00;;;;5017059;28;20642;-65
2022/01/14 01:15:57;;;;;;;0.60;0.60;;;3.20;99.90;3.10;103586.00;;;;5033950;28;20275;-65
2022/01/14 01:18:30;;;;;;;0.60;0.60;;;3.20;99.90;3.30;103572.00;;;;5032662;28;20203;-65
2022/01/14 01:21:01;;;;;;;0.70;0.70;;;3.10;99.90;3.40;103576.00;;;;5032376;28;20236;-64
2022/01/14 01:23:29;;;;;;;1.57;1.47;;;3.30;99.90;2.90;103568.00;;;;5032625;28;20187;-65
2022/01/14 01:26:08;;;;;;;0.50;0.50;;;3.20;99.90;3.00;103570.00;;;;5032549;28;20195;-65
2022/01/14 01:28:40;;;;;;;0.63;0.63;;;3.10;99.90;3.30;103574.00;;;;5031702;28;20546;-64
2022/01/14 01:31:35;;;;;;;1.30;1.30;;;3.10;99.90;3.80;103529.00;;;;5028756;28;20221;-65
2022/01/14 01:34:44;;;;;;;1.73;1.63;;;3.50;99.90;3.90;103557.00;;;;5014139;28;20192;-65
2022/01/14 01:37:17;;;;;;;3.20;2.13;;;3.60;99.90;2.80;103561.00;;;;4992288;28;20184;-65
2022/01/14 01:39:49;;;;;;;0.80;0.80;;;3.30;99.90;2.50;103556.00;;;;5008358;28;20310;-64
2022/01/14 01:42:43;;;;;;;0.67;0.67;;;2.90;99.90;2.40;103560.00;;;;5014152;28;20183;-64
2022/01/14 01:45:14;;;;;;;0.70;0.70;;;2.70;99.90;2.10;103562.00;;;;5013221;28;20198;-65
2022/01/14 01:47:44;;;;;;;0.60;0.60;;;2.50;99.90;2.10;103573.00;;;;5013336;28;20175;-64
2022/01/14 01:50:21;;;;;;;2.63;2.53;;;2.50;99.90;3.10;103565.00;;;;5012988;28;20187;-64
2022/01/14 01:52:51;;;;;;;1.17;1.17;;;2.80;99.90;2.80;103573.00;;;;5013783;28;20666;-64
2022/01/14 01:55:20;;;;;;;0.70;0.70;;;2.90;99.90;2.70;103572.00;;;;5012861;28;20191;-65
2022/01/14 01:57:48;;;;;;;0.60;0.60;;;2.80;99.90;3.30;103566.00;;;;5012767;28;20270;-65
2022/01/14 02:00:24;;;;;;;0.80;0.80;;;2.90;99.90;3.40;103559.00;;;;5013832;28;20191;-65
2022/01/14 02:02:54;;;;;;;1.53;1.43;;;3.10;99.90;3.20;103568.00;;;;5029276;28;20191;-65
2022/01/14 02:05:22;;;;;;;0.73;0.73;;;3.20;99.90;2.80;103569.00;;;;5013589;28;20179;-66
2022/01/14 02:07:53;;;;;;;1.10;1.10;;;2.90;99.90;2.80;103552.00;;;;5013557;28;20231;-65
2022/01/14 02:10:22;;;;;;;0.90;0.90;;;2.80;99.90;3.20;103512.00;;;;5029045;28;20183;-66
2022/01/14 02:12:53;;;;;;;13.17;11.97;;;2.90;99.90;3.30;103529.00;;;;5028430;28;20261;-65
2022/01/14 02:15:44;;;;;;;0.90;0.90;;;3.00;99.90;2.90;103541.00;;;;5012598;28;20167;-65
2022/01/14 02:26:53;;;;;;;0.80;0.80;;;2.80;99.90;2.30;103526.00;;;;5011337;28;20197;-66
2022/01/14 02:29:21;;;;;;;0.80;0.80;;;2.60;99.90;2.00;103522.00;;;;5011499;28;20260;-65
2022/01/14 02:31:48;;;;;;;3.80;3.43;;;2.40;99.90;1.80;103529.00;;;;5010963;28;20211;-65
2022/01/14 02:34:16;;;;;;;0.80;0.80;;;2.20;99.90;1.80;103503.00;;;;5012255;28;20175;-65
2022/01/14 02:36:46;;;;;;;0.87;0.87;;;2.20;99.90;2.00;103532.00;;;;5012290;28;20207;-65
2022/01/14 02:39:15;;;;;;;0.90;0.90;;;2.20;99.90;1.80;103453.00;;;;5012520;28;20650;-65
2022/01/14 02:41:44;;;;;;;1.10;1.10;;;2.20;99.90;1.90;103510.00;;;;5012613;28;20191;-65
2022/01/14 02:44:23;;;;;;;0.70;0.70;;;2.10;99.90;1.80;103502.00;;;;5012301;28;20234;-65
2022/01/14 02:46:55;;;;;;;0.80;0.80;;;2.10;99.90;2.00;103513.00;;;;5012876;28;20286;-66
2022/01/14 02:49:30;;;;;;;0.90;0.90;;;2.10;99.90;2.00;103483.00;;;;5013315;28;20202;-65
2022/01/14 02:51:58;;;;;;;0.70;0.70;;;2.10;99.90;1.70;103519.00;;;;5011939;28;20658;-65
2022/01/14 02:54:41;;;;;;;1.03;1.03;;;2.10;99.90;2.30;103511.00;;;;5012934;28;20180;-65
2022/01/14 02:57:17;;;;;;;1.17;1.17;;;2.10;99.90;2.10;103512.00;;;;5013341;28;20622;-65
2022/01/14 02:59:51;;;;;;;1.63;1.37;;;2.20;99.90;2.30;103460.00;;;;5012151;28;20665;-65
2022/01/14 03:02:18;;;;;;;0.90;0.90;;;2.20;99.90;2.30;103509.00;;;;5011923;28;20593;-65
2022/01/14 03:04:46;;;;;;;0.80;0.80;;;2.30;99.90;1.90;103500.00;;;;5012196;28;20172;-65
2022/01/14 03:07:14;;;;;;;0.90;0.90;;;2.10;99.90;2.10;103500.00;;;;5012098;28;20238;-65
2022/01/14 03:09:45;;;;;;;0.80;0.80;;;2.10;99.90;1.90;103460.00;;;;5013092;28;20533;-65
2022/01/14 03:12:16;;;;;;;2.40;2.30;;;2.10;99.90;1.80;103458.00;;;;5011914;28;20203;-65
2022/01/14 03:14:42;;;;;;;0.70;0.70;;;2.00;99.90;1.80;103488.00;;;;5012597;28;20191;-66
2022/01/14 03:17:13;;;;;;;0.80;0.80;;;2.00;99.90;2.30;103505.00;;;;5011768;28;20187;-65
2022/01/14 03:19:44;;;;;;;1.80;1.80;;;2.30;99.90;2.70;103510.00;;;;4998616;28;20187;-65
2022/01/14 03:22:27;;;;;;;2.80;2.53;;;2.50;99.90;3.10;103513.00;;;;5016053;28;20653;-65
2022/01/14 03:27:25;;;;;;;3.47;3.27;;;3.00;99.90;2.90;103502.00;;;;5015532;28;20200;-65
2022/01/14 03:29:54;;;;;;;1.27;1.27;;;3.00;99.90;2.80;103500.00;;;;5016736;28;20191;-65
2022/01/14 03:32:22;;;;;;;0.70;0.70;;;3.00;99.90;2.20;103462.00;;;;5014854;28;20222;-64
2022/01/14 03:34:54;;;;;;;5.10;4.80;;;2.70;99.90;2.00;103502.00;;;;5016501;28;20191;-64
2022/01/14 03:37:25;;;;;;;0.50;0.50;;;2.50;99.90;1.70;103504.00;;;;5015189;28;20541;-64
2022/01/14 03:39:53;;;;;;;2.30;2.20;;;2.30;99.90;2.30;103468.00;;;;5015252;28;20270;-64
2022/01/14 03:42:21;;;;;;;0.60;0.60;;;2.50;99.90;3.10;103466.00;;;;5015430;28;20650;-65
2022/01/14 03:44:53;;;;;;;0.70;0.70;;;2.70;99.90;2.90;103508.00;;;;5031891;28;20183;-64
2022/01/14 03:47:21;;;;;;;3.13;2.93;;;2.90;99.90;2.40;103508.00;;;;5014972;28;20637;-64
2022/01/14 03:49:49;;;;;;;0.57;0.57;;;2.70;99.90;1.90;103506.00;;;;5016509;28;20168;-64
2022/01/14 03:52:16;;;;;;;0.60;0.60;;;2.40;99.90;2.50;103508.00;;;;5016044;28;20191;-65
2022/01/14 03:54:45;;;;;;;4.87;4.67;;;2.60;99.90;2.90;103502.00;;;;5015289;28;20198;-64
2022/01/14 03:57:13;;;;;;;1.13;1.07;;;2.80;99.90;2.60;103501.00;;;;5016344;28;20230;-64
2022/01/14 03:59:45;;;;;;;2.00;1.90;;;2.80;99.90;2.80;103506.00;;;;5016138;28;20283;-64
2022/01/14 04:02:19;;;;;;;0.60;0.60;;;2.90;99.90;2.70;103471.00;;;;5015771;28;20250;-65
2022/01/14 04:04:44;;;;;;;1.23;1.23;;;2.80;99.90;2.80;103506.00;;;;5014542;28;20270;-65
2022/01/14 04:07:13;;;;;;;0.60;0.60;;;2.90;99.90;3.00;103513.00;;;;5014798;28;20271;-65
2022/01/14 04:09:40;;;;;;;0.97;0.97;;;3.00;99.90;3.10;103513.00;;;;5014791;28;20183;-65
2022/01/14 04:12:17;;;;;;;1.57;1.57;;;3.10;99.90;2.90;103506.00;;;;5015871;28;20191;-65
2022/01/14 04:17:19;;;;;;;0.60;0.60;;;3.20;99.90;2.70;103501.00;;;;5015721;28;20190;-65
2022/01/14 04:19:53;;;;;;;0.60;0.60;;;3.00;99.90;2.70;103514.00;;;;5014712;28;20180;-65
2022/01/14 04:22:18;;;;;;;1.47;1.47;;;3.10;99.90;2.80;103515.00;;;;5015422;28;20565;-65
2022/01/14 04:24:52;;;;;;;0.53;0.53;;;3.10;99.90;2.70;103503.00;;;;5014397;28;20196;-65
2022/01/14 04:27:18;;;;;;;0.60;0.60;;;2.90;99.90;2.50;103454.00;;;;5014695;28;20171;-65
2022/01/14 04:29:46;;;;;;;1.00;1.00;;;2.90;99.90;2.50;103503.00;;;;5014121;28;20758;-65
2022/01/14 04:32:17;;;;;;;3.50;3.30;;;2.80;99.90;2.60;103497.00;;;;5015290;28;20218;-65
2022/01/14 04:34:43;;;;;;;7.10;2.53;;;3.00;99.90;3.10;103489.00;;;;5015514;28;20199;-65
2022/01/14 04:37:11;;;;;;;0.60;0.60;;;3.10;99.90;3.50;103490.00;;;;5014161;28;20222;-65
2022/01/14 04:39:40;;;;;;;0.80;0.80;;;3.30;99.90;3.00;103480.00;;;;5015673;28;20210;-65
2022/01/14 04:42:09;;;;;;;3.47;1.80;;;3.10;99.90;2.70;103470.00;;;;5015173;28;20612;-65
2022/01/14 04:44:39;;;;;;;0.60;0.60;;;3.10;99.90;2.70;103442.00;;;;5030033;28;20681;-64
2022/01/14 04:47:30;;;;;;;0.50;0.50;;;3.00;99.90;2.90;103476.00;;;;5015386;28;20255;-65
2022/01/14 04:49:59;;;;;;;0.93;0.93;;;2.90;99.90;3.00;103455.00;;;;5014638;28;20168;-65
2022/01/14 04:52:34;;;;;;;0.70;0.70;;;3.00;99.90;2.50;103446.00;;;;5013877;28;20222;-65
2022/01/14 04:54:59;;;;;;;0.50;0.50;;;2.90;99.90;3.00;103427.00;;;;5013585;28;20229;-65
2022/01/14 04:57:28;;;;;;;0.60;0.60;;;2.90;99.90;2.90;103450.00;;;;5013998;28;20187;-65
2022/01/14 04:59:57;;;;;;;2.03;1.73;;;3.00;99.90;3.00;103437.00;;;;5014775;28;20176;-65
2022/01/14 05:02:28;;;;;;;0.70;0.70;;;3.10;99.90;2.70;103437.00;;;;5013611;28;20549;-64
2022/01/14 05:05:17;;;;;;;0.83;0.83;;;2.90;99.90;2.90;103456.00;;;;5014897;28;20176;-64
2022/01/14 05:07:49;;;;;;;2.20;1.77;;;2.80;99.90;3.30;103450.00;;;;5015119;28;20262;-65
2022/01/14 05:10:33;;;;;;;0.60;0.60;;;3.10;99.90;3.40;103415.00;;;;5015173;28;20183;-65
2022/01/14 05:13:03;;;;;;;0.77;0.77;;;3.20;99.90;2.70;103449.00;;;;5015653;28;20207;-64
2022/01/14 05:15:30;;;;;;;0.97;0.97;;;3.00;99.90;3.20;103441.00;;;;5013185;28;20194;-64
2022/01/14 05:18:00;;;;;;;0.70;0.70;;;3.00;99.90;3.40;103449.00;;;;5013948;28;20164;-65
2022/01/14 05:20:32;;;;;;;0.70;0.70;;;3.20;99.90;3.10;103457.00;;;;5015021;28;20163;-64
2022/01/14 05:22:58;;;;;;;0.80;0.80;;;3.10;99.90;2.30;103443.00;;;;5013645;28;20175;-65
2022/01/14 05:25:29;;;;;;;1.23;1.23;;;2.80;99.90;2.50;103448.00;;;;5013128;28;20163;-65
2022/01/14 05:28:00;;;;;;;0.70;0.70;;;2.70;99.90;3.10;103466.00;;;;5013481;28;20155;-65
2022/01/14 05:30:29;;;;;;;0.87;0.87;;;3.00;99.90;3.00;103439.00;;;;5013323;28;20214;-66
2022/01/14 05:32:57;;;;;;;1.43;1.00;;;3.10;99.90;2.30;103442.00;;;;5013977;28;20237;-65
2022/01/14 05:35:28;;;;;;;1.47;1.47;;;2.90;99.90;2.30;103448.00;;;;5014509;28;20256;-65
2022/01/14 05:38:00;;;;;;;0.63;0.63;;;2.60;99.90;2.90;103398.00;;;;5014768;28;20510;-65
2022/01/14 05:40:27;;;;;;;2.53;2.43;;;2.90;99.90;3.60;103448.00;;;;5013012;28;20167;-65
2022/01/14 05:42:59;;;;;;;1.47;1.47;;;3.20;99.90;3.50;103449.00;;;;5013694;28;20187;-66
2022/01/14 05:45:28;;;;;;;1.37;1.37;;;3.30;99.90;2.60;103445.00;;;;5013066;28;20555;-65
2022/01/14 05:47:59;;;;;;;1.00;1.00;;;3.00;99.90;3.20;103448.00;;;;5013492;28;20183;-66
2022/01/14 05:50:32;;;;;;;0.80;0.80;;;3.10;99.90;2.10;103441.00;;;;5012681;28;20593;-65
2022/01/14 05:52:57;;;;;;;0.50;0.50;;;2.70;99.90;2.30;103439.00;;;;5012784;28;20191;-64
2022/01/14 05:55:28;;;;;;;3.30;3.13;;;2.60;99.90;2.80;103437.00;;;;5012614;28;20257;-65
2022/01/14 05:57:57;;;;;;;0.80;0.80;;;2.70;99.90;2.30;103399.00;;;;5012624;28;20266;-65
2022/01/14 06:00:23;;;;;;;0.60;0.60;;;2.50;99.90;2.40;103429.00;;;;5013848;28;20253;-65
2022/01/14 06:02:52;;;;;;;0.73;0.73;;;2.50;99.90;3.00;103428.00;;;;5013973;28;20184;-65
2022/01/14 06:05:19;;;;;;;0.80;0.80;;;2.70;99.90;2.90;103434.00;;;;5012657;28;20167;-65
2022/01/14 06:07:45;;;;;;;0.70;0.70;;;2.70;99.90;2.30;103424.00;;;;5012530;28;20631;-65
2022/01/14 06:10:19;;;;;;;0.80;0.80;;;2.50;99.90;2.60;103422.00;;;;5012674;28;20211;-64
2022/01/14 06:12:47;;;;;;;0.70;0.70;;;2.50;99.90;2.20;103417.00;;;;5012176;28;20215;-65
2022/01/14 06:15:16;;;;;;;0.70;0.70;;;2.40;99.90;2.30;103416.00;;;;5028894;28;20527;-65
2022/01/14 06:17:46;;;;;;;2.37;1.57;;;2.30;99.90;2.50;103364.00;;;;5012385;28;20175;-65
2022/01/14 06:20:18;;;;;;;0.80;0.80;;;2.40;99.90;2.70;103414.00;;;;5012432;28;20183;-65
2022/01/14 06:22:51;;;;;;;2.27;2.17;;;2.60;99.90;3.30;103404.00;;;;5029181;28;20229;-65
2022/01/14 06:25:20;;;;;;;2.17;2.07;;;2.90;99.90;3.30;103404.00;;;;5013744;28;20642;-65
2022/01/14 06:27:46;;;;;;;3.07;2.97;;;3.00;99.90;2.80;103420.00;;;;5012268;28;20183;-65
2022/01/14 06:30:16;;;;;;;1.70;1.60;;;2.90;99.90;2.40;103395.00;;;;5012332;28;20180;-65
2022/01/14 06:32:44;;;;;;;4.63;3.20;;;2.80;99.90;2.50;103422.00;;;;5013514;28;20222;-65
2022/01/14 06:35:17;;;;;;;0.70;0.70;;;2.60;99.90;2.20;103401.00;;;;5012504;28;20241;-65
2022/01/14 06:37:45;;;;;;;2.77;2.57;;;2.50;99.90;1.40;103392.00;;;;5013563;28;20179;-65
2022/01/14 06:40:19;;;;;;;2.97;2.50;;;2.10;99.90;1.40;103436.00;;;;5012189;28;20187;-65
2022/01/14 06:42:53;;;;;;;1.70;1.60;;;1.90;99.90;1.70;103445.00;;;;5013116;28;20262;-65
2022/01/14 06:45:24;;;;;;;0.83;0.83;;;2.00;99.90;2.40;103433.00;;;;5013327;28;20188;-66
2022/01/14 06:47:58;;;;;;;3.33;3.13;;;2.20;99.90;2.50;103451.00;;;;5013505;28;20186;-65
2022/01/14 06:50:32;;;;;;;1.23;1.23;;;2.50;99.90;2.50;103451.00;;;;5013503;28;20183;-65
2022/01/14 06:53:00;;;;;;;1.60;1.60;;;2.50;99.90;2.30;103452.00;;;;5012510;28;20235;-65
2022/01/14 06:55:31;;;;;;;2.55;1.70;;;2.50;99.90;2.00;103446.00;;;;5015717;28;20520;-65
2022/01/14 06:57:57;;;;;;;0.60;0.60;;;2.40;99.90;2.00;103431.00;;;;5017424;28;20175;-66
2022/01/14 07:00:33;;;;;;;2.20;2.10;;;2.30;99.90;2.70;103421.00;;;;5017269;28;20183;-64
2022/01/14 07:03:37;;;;;;;0.80;0.80;;;2.50;99.90;2.70;103432.00;;;;5017390;28;20167;-64
2022/01/14 07:06:03;;;;;;;1.30;1.30;;;2.60;99.90;2.90;103432.00;;;;5017232;28;20171;-66
2022/01/14 07:08:29;;;;;;;2.40;2.30;;;2.70;99.90;2.60;103434.00;;;;5017195;28;20569;-66
2022/01/14 07:10:55;;;;;;;6.03;5.40;;;2.70;99.90;2.80;103435.00;;;;5015980;28;20175;-65
2022/01/14 07:13:23;;;;;;;1.33;1.33;;;2.80;99.90;2.60;103430.00;;;;5016964;28;20203;-66
2022/01/14 07:15:52;;;;;;;0.70;0.70;;;2.70;99.90;2.30;103433.00;;;;5015758;28;20187;-65
2022/01/14 07:18:18;;;;;;;0.70;0.70;;;2.50;99.90;2.30;103428.00;;;;5015687;28;20194;-66
2022/01/14 07:20:48;;;;;;;0.97;0.97;;;2.40;99.90;2.30;103436.00;;;;5015934;28;20168;-65
2022/01/14 07:23:17;;;;;;;1.00;1.00;;;2.50;99.90;2.00;103422.00;;;;5016909;28;20179;-64
2022/01/14 07:25:51;;;;;;;1.63;1.53;;;2.40;99.90;2.30;103432.00;;;;5015986;28;20172;-67
2022/01/14 07:28:17;;;;;;;0.60;0.60;;;2.50;99.90;2.00;103441.00;;;;5015456;28;20633;-67
2022/01/14 07:30:43;;;;;;;0.50;0.50;;;2.20;99.90;2.00;103435.00;;;;5032209;28;20221;-65
2022/01/14 07:33:09;;;;;;;0.80;0.80;;;2.20;99.90;2.80;103443.00;;;;5014961;28;20226;-65
2022/01/14 07:35:40;;;;;;;1.23;1.23;;;2.50;99.90;2.40;103445.00;;;;5015911;28;20229;-65
2022/01/14 07:38:06;;;;;;;0.70;0.70;;;2.60;99.90;2.40;103441.00;;;;5015247;28;20665;-65
2022/01/14 07:40:32;;;;;;;0.90;0.90;;;2.50;99.90;2.80;103435.00;;;;5016454;28;20191;-65
2022/01/14 07:43:06;;;;;;;0.80;0.80;;;2.70;99.90;2.80;103431.00;;;;5016675;28;20182;-65
2022/01/14 07:45:32;;;;;;;0.70;0.70;;;2.80;99.90;3.10;103442.00;;;;4998684;28;20715;-65
2022/01/14 07:48:01;;;;;;;1.10;1.10;;;2.80;99.90;3.10;103436.00;;;;5016553;28;20314;-64
2022/01/14 07:50:29;;;;;;;0.80;0.80;;;2.90;99.90;3.00;103427.00;;;;5016419;28;20179;-66
2022/01/14 07:52:55;;;;;;;0.83;0.83;;;3.00;99.90;2.80;103448.00;;;;5014845;28;20723;-65
2022/01/14 07:55:27;;;;;;;1.00;1.00;;;3.00;99.90;2.70;103422.00;;;;5016260;28;20172;-65
2022/01/14 07:57:59;;;;;;;2.50;2.40;;;2.90;99.90;2.00;103434.00;;;;5015063;28;20184;-65
2022/01/14 08:00:25;;;;;;;1.40;1.40;;;2.50;99.90;2.00;103432.00;;;;5015042;28;20234;-65
2022/01/14 08:02:53;;;;;;;1.00;1.00;;;2.40;99.90;2.00;103440.00;;;;5015224;28;20175;-65
2022/01/14 08:05:19;;;;;;;3.10;2.10;;;2.30;99.90;2.10;103432.00;;;;5014167;28;20183;-65
2022/01/14 08:07:47;;;;;;;0.60;0.60;;;2.40;99.90;2.10;103395.00;;;;5016164;28;20168;-65
2022/01/14 08:10:14;;;;;;;1.27;1.27;;;2.30;99.90;2.20;103447.00;;;;5014547;28;20194;-64
2022/01/14 08:12:43;;;;;;;3.33;3.03;;;2.40;99.90;2.50;103443.00;;;;5014661;28;20199;-66
2022/01/14 08:15:11;;;;;;;1.27;1.27;;;2.50;99.90;2.50;103446.00;;;;5016011;28;20204;-65
2022/01/14 08:17:37;;;;;;;4.10;2.10;;;2.50;99.90;3.20;103453.00;;;;5015113;28;20187;-65
2022/01/14 08:20:06;;;;;;;1.13;1.13;;;2.90;99.90;2.90;103452.00;;;;5015631;28;20175;-65
2022/01/14 08:22:32;;;;;;;3.43;2.97;;;2.80;99.90;2.00;103443.00;;;;5014273;28;20187;-65
2022/01/14 08:25:04;;;;;;;0.70;0.70;;;2.60;99.90;2.40;103441.00;;;;5014542;28;20631;-65
2022/01/14 08:27:36;;;;;;;1.00;1.00;;;2.60;99.90;2.10;103429.00;;;;5015734;28;20198;-65
2022/01/14 08:30:04;;;;;;;5.07;4.87;;;2.50;99.90;2.20;103432.00;;;;5015862;28;20179;-65
2022/01/14 08:32:30;;;;;;;1.20;1.20;;;2.50;99.90;2.90;103451.00;;;;5015331;28;20273;-65
2022/01/14 08:34:56;;;;;;;4.13;3.93;;;2.80;99.90;2.00;103445.00;;;;5014701;28;20589;-65
2022/01/14 08:37:22;;;;;;;0.60;0.60;;;2.60;99.90;2.40;103444.00;;;;5013817;28;20176;-65
2022/01/14 08:39:48;;;;;;;1.27;1.27;;;2.50;99.90;2.80;103447.00;;;;5015427;28;20262;-65
2022/01/14 08:42:14;;;;;;;4.77;4.47;;;2.70;99.90;3.20;103445.00;;;;5014128;28;20197;-65
2022/01/14 08:44:43;;;;;;;1.17;1.17;;;2.90;99.90;3.10;103451.00;;;;5015300;28;20198;-63
2022/01/14 08:47:10;;;;;;;0.90;0.90;;;3.10;99.90;2.20;103455.00;;;;5014237;28;20179;-63
2022/01/14 08:49:42;;;;;;;1.90;1.83;;;2.80;99.90;2.60;103447.00;;;;5013725;28;20202;-63
2022/01/14 08:52:10;;;;;;;0.90;0.90;;;2.60;99.90;2.40;103443.00;;;;5012887;28;20337;-66
2022/01/14 08:54:36;;;;;;;0.70;0.70;;;2.60;99.90;2.40;103449.00;;;;5015059;28;20191;-65
2022/01/14 08:57:05;;;;;;;0.90;0.90;;;2.70;99.90;2.50;103438.00;;;;5030546;28;20631;-65
2022/01/14 08:59:37;;;;;;;0.90;0.90;;;2.70;99.90;2.60;103388.00;;;;5014811;28;20549;-61
2022/01/14 09:02:08;;;;;;;0.60;0.60;;;2.90;99.90;2.70;103429.00;;;;5014969;28;20758;-64
2022/01/14 09:04:34;;;;;;;2.10;2.00;;;2.80;99.90;3.60;103433.00;;;;5013776;28;20528;-64
2022/01/14 09:07:01;;;;;;;0.80;0.80;;;3.20;99.90;3.00;103426.00;;;;5014673;28;20255;-64
2022/01/14 09:09:32;;;;;;;3.33;3.13;;;3.30;99.90;2.40;103420.00;;;;5013561;28;20543;-63
2022/01/14 09:12:02;;;;;;;1.27;1.27;;;2.90;99.90;2.80;103425.00;;;;5014590;28;20191;-63
2022/01/14 09:14:31;;;;;;;1.97;1.87;;;2.90;99.90;2.60;103418.00;;;;5012971;28;20245;-64
2022/01/14 09:16:57;;;;;;;1.30;1.30;;;2.80;99.90;3.10;103422.00;;;;5013863;28;20187;-64
2022/01/14 09:19:25;;;;;;;1.97;1.87;;;3.10;99.90;2.80;103435.00;;;;5014498;28;20697;-64
2022/01/14 09:21:56;;;;;;;3.13;3.03;;;3.10;99.90;3.00;103428.00;;;;5014377;28;20229;-64
2022/01/14 09:24:27;;;;;;;0.60;0.60;;;3.10;99.90;3.20;103418.00;;;;5014570;28;20183;-63
2022/01/14 09:26:58;;;;;;;0.70;0.70;;;3.10;99.90;2.60;103412.00;;;;5014770;28;20202;-64
2022/01/14 09:29:29;;;;;;;4.17;3.97;;;3.00;99.90;3.50;103438.00;;;;5013306;28;20172;-64
2022/01/14 09:32:03;;;;;;;2.03;1.57;;;3.40;99.90;3.00;103432.00;;;;5012900;28;20203;-64
2022/01/14 09:34:37;;;;;;;1.20;1.20;;;3.30;99.90;3.20;103433.00;;;;5012954;28;20554;-63
2022/01/14 09:37:08;;;;;;;1.00;1.00;;;3.50;99.90;3.00;103376.00;;;;5013361;28;20234;-64
2022/01/14 09:39:36;;;;;;;0.60;0.60;;;3.40;99.90;2.90;103394.00;;;;5029339;28;20214;-64
2022/01/14 09:42:08;;;;;;;3.63;1.70;;;3.30;99.90;2.70;103432.00;;;;5013980;28;20188;-64
2022/01/14 09:44:44;;;;;;;0.60;0.60;;;3.20;99.90;2.80;103430.00;;;;5010775;28;20187;-64
2022/01/14 09:47:20;;;;;;;0.57;0.57;;;3.20;99.90;3.00;103431.00;;;;5013377;28;20261;-64
2022/01/14 09:49:51;;;;;;;0.60;0.60;;;3.30;99.90;3.50;103442.00;;;;5012243;28;20175;-64
2022/01/14 09:52:23;;;;;;;1.80;1.80;;;3.60;99.90;4.10;103452.00;;;;5012769;28;20210;-64
2022/01/14 09:54:54;;;;;;;2.03;1.93;;;3.90;99.90;4.00;103442.00;;;;5013975;28;20565;-65
2022/01/14 09:57:25;;;;;;;1.03;1.03;;;4.20;99.90;3.70;103449.00;;;;5012899;28;20179;-64
2022/01/14 09:59:56;;;;;;;2.50;1.53;;;4.00;99.90;5.20;103463.00;;;;5012342;28;20269;-64
2022/01/14 10:02:50;;;;;;;2.87;2.67;;;4.70;99.90;4.90;103439.00;;;;5013811;28;20183;-65
2022/01/14 10:05:37;;;;;;;0.80;0.80;;;5.00;99.90;5.60;103452.00;;;;5012619;28;20200;-65
2022/01/14 10:08:22;;;;;;;0.80;0.80;;;5.40;99.90;6.20;103458.00;;;;5012615;28;20626;-65
2022/01/14 10:10:59;;;;;;;1.10;1.10;;;5.80;99.90;5.70;103442.00;;;;5013870;28;20193;-65
2022/01/14 10:13:35;;;;;;;1.70;1.60;;;6.10;99.90;6.60;103432.00;;;;5012547;28;20235;-65
2022/01/14 10:16:06;;;;;;;4.57;2.00;;;6.20;99.90;7.50;103392.00;;;;5012200;28;20546;-65
2022/01/14 10:18:40;;;;;;;1.70;1.60;;;6.90;99.90;5.70;103438.00;;;;5012483;28;20233;-65
2022/01/14 10:33:28;;;;;;;5.47;4.97;;;4.90;99.90;5.30;103438.00;;;;5067019;28;20573;-65
2022/01/14 10:35:55;;;;;;;1.20;1.20;;;5.40;99.90;5.10;103427.00;;;;5050830;28;20643;-64
2022/01/14 10:38:24;;;;;;;1.03;1.03;;;5.40;99.90;6.40;103439.00;;;;5048196;28;20216;-63
2022/01/14 10:40:54;;;;;;;2.10;2.00;;;6.00;99.90;6.20;103431.00;;;;5043584;28;20271;-63
2022/01/14 10:43:32;;;;;;;1.43;1.30;;;6.20;99.90;7.70;103435.00;;;;5048950;28;20634;-63
2022/01/14 10:46:01;;;;;;;0.43;0.43;;;7.00;99.90;8.20;103431.00;;;;5049488;28;20197;-63
2022/01/14 10:48:43;;;;;;;0.40;0.40;;;7.80;99.90;6.10;103415.00;;;;5050344;28;20165;-63
2022/01/14 10:51:17;;;;;;;2.33;2.23;;;6.80;99.90;6.30;103418.00;;;;5050305;28;20204;-64
2022/01/14 10:53:49;;;;;;;2.03;1.93;;;6.80;99.90;5.90;103395.00;;;;5050311;28;20166;-63
2022/01/14 10:56:21;;;;;;;3.03;2.87;;;6.50;99.90;5.50;103408.00;;;;5049252;28;20216;-63
2022/01/14 10:58:51;;;;;;;6.63;5.23;;;6.10;99.90;5.60;103401.00;;;;5050336;28;20189;-63
2022/01/14 11:01:21;;;;;;;3.60;3.30;;;6.00;99.90;6.70;103391.00;;;;5050131;28;20181;-63
2022/01/14 11:04:01;;;;;;;9.03;8.23;;;6.50;99.90;6.70;103350.00;;;;5048593;28;20641;-63
2022/01/14 11:06:41;;;;;;;3.07;2.77;;;6.60;99.90;7.40;103398.00;;;;5049328;28;20269;-63
2022/01/14 11:09:18;;;;;;;2.87;2.73;;;7.10;99.90;8.30;103384.00;;;;5049028;28;20173;-63
2022/01/14 11:11:53;;;;;;;0.90;0.90;;;7.80;99.90;8.20;103387.00;;;;5049863;28;20209;-63
2022/01/14 11:14:22;;;;;;;2.33;2.23;;;8.20;99.90;9.20;103392.00;;;;5050101;28;20185;-63
2022/01/14 11:16:49;;;;;;;1.00;1.00;;;8.60;99.90;8.40;103390.00;;;;5048447;28;20182;-64
2022/01/14 11:19:15;;;;;;;5.27;3.77;;;8.70;99.90;9.10;103389.00;;;;5049073;28;20659;-64
2022/01/14 11:24:34;;;;;;;1.97;1.80;;;9.10;99.90;10.30;103388.00;;;;5062715;28;20224;-64
2022/01/14 11:27:27;;;;;;;1.30;1.27;;;9.60;99.90;9.50;103381.00;;;;5032856;28;20269;-64
2022/01/14 11:30:00;;;;;;;0.60;0.60;;;9.70;99.90;8.50;103374.00;;;;5049108;28;20190;-64
2022/01/14 11:32:27;;;;;;;0.30;0.30;;;8.90;99.90;9.10;103380.00;;;;5064281;28;20218;-64
2022/01/14 11:34:55;;;;;;;0.30;0.30;;;8.90;99.90;9.90;103371.00;;;;5064969;28;20175;-64
2022/01/14 11:37:33;;;;;;;1.70;1.13;;;9.40;99.90;10.30;103383.00;;;;5040536;28;20191;-65
2022/01/14 11:40:12;;;;;;;1.37;1.37;;;9.90;99.90;10.80;103381.00;;;;5049842;28;20193;-64
2022/01/14 11:43:02;;;;;;;0.80;0.80;;;10.20;99.90;10.80;103376.00;;;;5062271;28;20187;-64
2022/01/14 11:45:46;;;;;;;0.40;0.40;;;10.40;99.90;10.50;103355.00;;;;5035679;28;20185;-64
2022/01/14 11:48:37;;;;;;;4.80;4.43;;;10.30;99.90;10.50;103385.00;;;;5036089;28;20182;-64
2022/01/14 11:51:09;;;;;;;3.67;3.37;;;10.30;99.90;10.60;103384.00;;;;5035731;28;20328;-65
2022/01/14 11:53:48;;;;;;;0.60;0.60;;;10.30;99.90;10.70;103350.00;;;;5034533;28;20200;-65
2022/01/14 11:56:44;;;;;;;2.10;2.00;;;10.50;99.90;10.90;103382.00;;;;5036131;28;20190;-64
2022/01/14 11:59:22;;;;;;;1.00;1.00;;;10.50;99.90;10.80;103377.00;;;;5022412;28;20278;-64
2022/01/14 12:01:55;;;;;;;0.80;0.80;;;10.50;99.90;11.00;103377.00;;;;5035264;28;20597;-64
2022/01/14 12:05:00;;;;;;;1.40;1.30;;;10.70;99.90;10.90;103382.00;;;;5034589;28;20179;-64